CheckWX is a tool to help pilots better visualize weather data.  It is not intended as a substitute for an official pre-flight weather briefing.

21:18:15 UTC

GAMB METAR
Mopti Airport
Mali
Current

3 hours ago

GAMB 231800Z 04018KT 5000 BLDU NSC 29/M06 Q1012
Observed
Feb-23 @ 18:00 UTC
Wind
  • 040° at 18 KTS
Visibility
5,005 meters
Flight Rules
MVFR
Conditions
Blowing Dust
Cloud Levels
  • Clear skies
Temperature
29°C / 84°F
Dewpoint
-6°C / 21°F
Humidity
10%
Altimeter
29.88" Hg
Pressure
1011.92 hPa
Previous

6 hours ago

GAMB 231500Z 04020KT 4000 BLDU NSC 32/M09 Q1012
Observed
Feb-23 @ 15:00 UTC
Wind
  • 040° at 20 KTS
Visibility
4,007 meters
Flight Rules
IFR
Conditions
Blowing Dust
Cloud Levels
  • Clear skies
Temperature
32°C / 90°F
Dewpoint
-9°C / 16°F
Humidity
6%
Altimeter
29.88" Hg
Pressure
1011.92 hPa
Previous

9 hours ago

GAMB 231200Z 02021KT 4500 BLDU NSC 29/M09 Q1015
Observed
Feb-23 @ 12:00 UTC
Wind
  • 020° at 21 KTS
Visibility
4,506 meters
Flight Rules
IFR
Conditions
Blowing Dust
Cloud Levels
  • Clear skies
Temperature
29°C / 84°F
Dewpoint
-9°C / 16°F
Humidity
8%
Altimeter
29.97" Hg
Pressure
1014.92 hPa